sensor_id;sensor_type;location;lat;lon;timestamp;pressure;altitude;pressure_sealevel;temperature;humidity
9935;BME280;5006;41.828;23.478;2023-02-17T00:00:37;91142.84;;;10.52;42.25
9935;BME280;5006;41.828;23.478;2023-02-17T00:01:42;91141.94;;;10.41;42.85
9935;BME280;5006;41.828;23.478;2023-02-17T00:02:49;91140.66;;;10.61;43.08
9935;BME280;5006;41.828;23.478;2023-02-17T00:03:53;91143.94;;;10.18;43.38
9935;BME280;5006;41.828;23.478;2023-02-17T00:04:59;91137.34;;;10.41;43.25
9935;BME280;5006;41.828;23.478;2023-02-17T00:06:09;91136.84;;;10.62;43.03
9935;BME280;5006;41.828;23.478;2023-02-17T00:07:15;91131.72;;;9.68;44.46
9935;BME280;5006;41.828;23.478;2023-02-17T00:08:19;91134.09;;;9.73;43.94
9935;BME280;5006;41.828;23.478;2023-02-17T00:09:25;91136.34;;;9.97;43.61
9935;BME280;5006;41.828;23.478;2023-02-17T00:10:30;91135.75;;;10.07;43.85
9935;BME280;5006;41.828;23.478;2023-02-17T00:11:36;91133.66;;;9.97;44.14
9935;BME280;5006;41.828;23.478;2023-02-17T00:12:42;91126.53;;;10.05;44.13
9935;BME280;5006;41.828;23.478;2023-02-17T00:13:47;91123.03;;;10.63;42.73
9935;BME280;5006;41.828;23.478;2023-02-17T00:14:52;91136.41;;;10.60;42.76
9935;BME280;5006;41.828;23.478;2023-02-17T00:15:57;91132.16;;;10.55;43.90
9935;BME280;5006;41.828;23.478;2023-02-17T00:17:03;91132.94;;;10.26;45.05
9935;BME280;5006;41.828;23.478;2023-02-17T00:18:09;91129.94;;;10.31;44.81
9935;BME280;5006;41.828;23.478;2023-02-17T00:19:14;91130.94;;;9.94;45.14
9935;BME280;5006;41.828;23.478;2023-02-17T00:20:29;91133.44;;;10.06;46.01
9935;BME280;5006;41.828;23.478;2023-02-17T00:21:35;91137.50;;;10.22;45.37
9935;BME280;5006;41.828;23.478;2023-02-17T00:22:41;91133.84;;;10.08;45.65
9935;BME280;5006;41.828;23.478;2023-02-17T00:23:47;91133.72;;;10.01;44.66
9935;BME280;5006;41.828;23.478;2023-02-17T00:24:53;91132.13;;;10.22;44.02
9935;BME280;5006;41.828;23.478;2023-02-17T00:25:58;91131.53;;;10.68;44.15
9935;BME280;5006;41.828;23.478;2023-02-17T00:27:03;91129.72;;;10.14;44.65
9935;BME280;5006;41.828;23.478;2023-02-17T00:28:09;91133.50;;;10.39;44.11
9935;BME280;5006;41.828;23.478;2023-02-17T00:29:15;91132.50;;;10.86;42.62
9935;BME280;5006;41.828;23.478;2023-02-17T00:30:20;91132.97;;;10.30;43.28
9935;BME280;5006;41.828;23.478;2023-02-17T00:31:26;91131.25;;;10.44;43.66
9935;BME280;5006;41.828;23.478;2023-02-17T00:32:31;91129.09;;;10.89;43.04
9935;BME280;5006;41.828;23.478;2023-02-17T00:33:36;91132.81;;;10.45;43.32
9935;BME280;5006;41.828;23.478;2023-02-17T00:34:43;91130.16;;;10.49;43.15
9935;BME280;5006;41.828;23.478;2023-02-17T00:35:49;91131.13;;;10.34;44.50
9935;BME280;5006;41.828;23.478;2023-02-17T00:36:55;91127.44;;;10.45;45.30
9935;BME280;5006;41.828;23.478;2023-02-17T00:38:00;91120.59;;;10.18;45.60
9935;BME280;5006;41.828;23.478;2023-02-17T00:39:05;91126.00;;;10.55;46.94
9935;BME280;5006;41.828;23.478;2023-02-17T00:40:12;91124.47;;;10.86;45.09
9935;BME280;5006;41.828;23.478;2023-02-17T00:41:18;91122.88;;;10.82;45.20
9935;BME280;5006;41.828;23.478;2023-02-17T00:42:24;91124.34;;;10.76;45.63
9935;BME280;5006;41.828;23.478;2023-02-17T00:43:28;91127.50;;;10.52;44.85
9935;BME280;5006;41.828;23.478;2023-02-17T00:44:34;91117.25;;;10.94;44.99
9935;BME280;5006;41.828;23.478;2023-02-17T00:45:39;91123.72;;;10.57;44.52
9935;BME280;5006;41.828;23.478;2023-02-17T00:46:45;91119.28;;;10.05;45.12
9935;BME280;5006;41.828;23.478;2023-02-17T00:47:51;91114.44;;;10.18;46.41
9935;BME280;5006;41.828;23.478;2023-02-17T00:48:57;91114.00;;;10.74;44.97
9935;BME280;5006;41.828;23.478;2023-02-17T00:50:04;91111.81;;;10.51;45.60
9935;BME280;5006;41.828;23.478;2023-02-17T00:51:09;91112.28;;;10.01;45.72
9935;BME280;5006;41.828;23.478;2023-02-17T00:52:17;91117.75;;;10.37;44.15
9935;BME280;5006;41.828;23.478;2023-02-17T00:53:22;91111.41;;;10.52;43.45
9935;BME280;5006;41.828;23.478;2023-02-17T00:54:27;91112.03;;;10.71;42.75
9935;BME280;5006;41.828;23.478;2023-02-17T00:55:32;91107.97;;;10.52;43.23
9935;BME280;5006;41.828;23.478;2023-02-17T00:56:38;91113.16;;;10.67;42.59
9935;BME280;5006;41.828;23.478;2023-02-17T00:57:43;91108.97;;;8.43;45.25
9935;BME280;5006;41.828;23.478;2023-02-17T00:58:49;91103.53;;;10.33;43.45
9935;BME280;5006;41.828;23.478;2023-02-17T00:59:55;91096.97;;;10.60;44.00
9935;BME280;5006;41.828;23.478;2023-02-17T01:01:00;91104.03;;;8.26;48.37
9935;BME280;5006;41.828;23.478;2023-02-17T01:02:05;91114.94;;;7.99;49.70
9935;BME280;5006;41.828;23.478;2023-02-17T01:03:10;91107.47;;;8.64;48.43
9935;BME280;5006;41.828;23.478;2023-02-17T01:04:16;91102.25;;;7.77;49.97
9935;BME280;5006;41.828;23.478;2023-02-17T01:05:23;91110.34;;;7.99;50.14
9935;BME280;5006;41.828;23.478;2023-02-17T01:06:31;91104.47;;;7.56;49.95
9935;BME280;5006;41.828;23.478;2023-02-17T01:07:40;91110.72;;;7.63;49.88
9935;BME280;5006;41.828;23.478;2023-02-17T01:08:46;91110.91;;;8.08;49.73
9935;BME280;5006;41.828;23.478;2023-02-17T01:09:50;91106.81;;;8.14;49.28
9935;BME280;5006;41.828;23.478;2023-02-17T01:10:56;91089.28;;;10.26;45.06
9935;BME280;5006;41.828;23.478;2023-02-17T01:12:02;91088.06;;;10.53;43.40
9935;BME280;5006;41.828;23.478;2023-02-17T01:13:10;91091.97;;;10.95;42.73
9935;BME280;5006;41.828;23.478;2023-02-17T01:14:16;91093.31;;;10.78;44.28
9935;BME280;5006;41.828;23.478;2023-02-17T01:15:20;91089.56;;;10.50;45.42
9935;BME280;5006;41.828;23.478;2023-02-17T01:16:28;91087.16;;;10.74;46.88
9935;BME280;5006;41.828;23.478;2023-02-17T01:17:36;91087.00;;;10.61;46.20
9935;BME280;5006;41.828;23.478;2023-02-17T01:18:41;91085.50;;;10.63;46.49
9935;BME280;5006;41.828;23.478;2023-02-17T01:19:46;91084.00;;;10.66;46.36
9935;BME280;5006;41.828;23.478;2023-02-17T01:20:53;91095.88;;;8.38;50.11
9935;BME280;5006;41.828;23.478;2023-02-17T01:21:58;91090.59;;;8.04;50.39
9935;BME280;5006;41.828;23.478;2023-02-17T01:23:07;91092.19;;;7.89;50.71
9935;BME280;5006;41.828;23.478;2023-02-17T01:24:12;91091.69;;;8.18;50.41
9935;BME280;5006;41.828;23.478;2023-02-17T01:25:18;91088.78;;;7.89;50.18
9935;BME280;5006;41.828;23.478;2023-02-17T01:26:25;91093.47;;;7.76;49.25
9935;BME280;5006;41.828;23.478;2023-02-17T01:27:31;91079.28;;;8.10;47.29
9935;BME280;5006;41.828;23.478;2023-02-17T01:28:36;91079.88;;;10.39;45.17
9935;BME280;5006;41.828;23.478;2023-02-17T01:29:43;91070.72;;;10.43;44.65
9935;BME280;5006;41.828;23.478;2023-02-17T01:30:49;91082.28;;;8.47;46.86
9935;BME280;5006;41.828;23.478;2023-02-17T01:31:53;91078.06;;;7.70;48.78
9935;BME280;5006;41.828;23.478;2023-02-17T01:32:59;91072.88;;;7.77;48.86
9935;BME280;5006;41.828;23.478;2023-02-17T01:34:04;91076.94;;;7.52;48.59
9935;BME280;5006;41.828;23.478;2023-02-17T01:35:09;91074.13;;;7.83;48.99
9935;BME280;5006;41.828;23.478;2023-02-17T01:36:17;91074.16;;;8.02;48.99
9935;BME280;5006;41.828;23.478;2023-02-17T01:37:23;91070.13;;;7.73;51.26
9935;BME280;5006;41.828;23.478;2023-02-17T01:38:29;91076.94;;;7.52;50.33
9935;BME280;5006;41.828;23.478;2023-02-17T01:39:34;91075.06;;;7.90;49.81
9935;BME280;5006;41.828;23.478;2023-02-17T01:40:45;91074.63;;;7.69;50.25
9935;BME280;5006;41.828;23.478;2023-02-17T01:41:51;91071.97;;;7.69;50.56
9935;BME280;5006;41.828;23.478;2023-02-17T01:42:58;91064.66;;;8.04;49.66
9935;BME280;5006;41.828;23.478;2023-02-17T01:44:13;91070.00;;;7.66;49.06
9935;BME280;5006;41.828;23.478;2023-02-17T01:45:40;91066.38;;;7.93;48.95
9935;BME280;5006;41.828;23.478;2023-02-17T01:46:52;91063.59;;;7.71;48.70
9935;BME280;5006;41.828;23.478;2023-02-17T01:47:59;91063.16;;;7.69;50.23
9935;BME280;5006;41.828;23.478;2023-02-17T01:49:14;91056.22;;;7.64;51.96
9935;BME280;5006;41.828;23.478;2023-02-17T01:50:23;91059.88;;;8.13;51.34
9935;BME280;5006;41.828;23.478;2023-02-17T01:51:33;91052.41;;;7.65;50.18
9935;BME280;5006;41.828;23.478;2023-02-17T01:52:42;91058.63;;;7.69;51.74
9935;BME280;5006;41.828;23.478;2023-02-17T01:53:54;91049.44;;;7.86;49.55
9935;BME280;5006;41.828;23.478;2023-02-17T01:55:05;91048.78;;;8.11;49.56
9935;BME280;5006;41.828;23.478;2023-02-17T01:56:13;91064.59;;;8.01;49.69
9935;BME280;5006;41.828;23.478;2023-02-17T01:57:21;91044.13;;;8.27;49.11
9935;BME280;5006;41.828;23.478;2023-02-17T01:58:29;91049.25;;;9.03;49.57
9935;BME280;5006;41.828;23.478;2023-02-17T01:59:34;91046.19;;;7.77;50.01
9935;BME280;5006;41.828;23.478;2023-02-17T02:00:41;91053.91;;;8.01;49.54
9935;BME280;5006;41.828;23.478;2023-02-17T02:01:49;91054.03;;;7.70;50.41
9935;BME280;5006;41.828;23.478;2023-02-17T02:02:59;91043.47;;;7.39;51.43
9935;BME280;5006;41.828;23.478;2023-02-17T02:04:05;91052.16;;;7.70;51.59
9935;BME280;5006;41.828;23.478;2023-02-17T02:05:12;91053.16;;;8.19;48.75
9935;BME280;5006;41.828;23.478;2023-02-17T02:06:20;91051.00;;;8.47;48.04
9935;BME280;5006;41.828;23.478;2023-02-17T02:07:29;91057.56;;;8.31;47.43
9935;BME280;5006;41.828;23.478;2023-02-17T02:08:40;91055.97;;;8.48;47.48
9935;BME280;5006;41.828;23.478;2023-02-17T02:09:53;91052.25;;;8.53;47.01
9935;BME280;5006;41.828;23.478;2023-02-17T02:10:58;91054.66;;;8.39;47.11
9935;BME280;5006;41.828;23.478;2023-02-17T02:12:15;91049.97;;;8.33;47.73
9935;BME280;5006;41.828;23.478;2023-02-17T02:13:23;91047.88;;;8.23;47.80
9935;BME280;5006;41.828;23.478;2023-02-17T02:14:30;91044.84;;;8.43;47.38
9935;BME280;5006;41.828;23.478;2023-02-17T02:15:39;91040.25;;;8.44;49.04
9935;BME280;5006;41.828;23.478;2023-02-17T02:16:53;91038.38;;;8.25;48.65
9935;BME280;5006;41.828;23.478;2023-02-17T02:18:14;91043.53;;;8.56;48.57
9935;BME280;5006;41.828;23.478;2023-02-17T02:20:01;91042.09;;;8.40;48.73
9935;BME280;5006;41.828;23.478;2023-02-17T02:21:27;91039.50;;;8.43;48.22
9935;BME280;5006;41.828;23.478;2023-02-17T02:23:08;91046.75;;;8.05;49.85
9935;BME280;5006;41.828;23.478;2023-02-17T02:24:25;91043.31;;;6.97;50.73
9935;BME280;5006;41.828;23.478;2023-02-17T02:27:33;91046.19;;;7.23;51.43
9935;BME280;5006;41.828;23.478;2023-02-17T02:28:57;91051.16;;;7.78;49.52
9935;BME280;5006;41.828;23.478;2023-02-17T02:32:04;91045.38;;;8.14;47.28
9935;BME280;5006;41.828;23.478;2023-02-17T02:33:22;91052.25;;;7.74;48.65
9935;BME280;5006;41.828;23.478;2023-02-17T02:34:34;91047.78;;;7.62;50.25
9935;BME280;5006;41.828;23.478;2023-02-17T02:35:47;91058.56;;;7.31;51.73
9935;BME280;5006;41.828;23.478;2023-02-17T02:36:59;91049.31;;;7.10;51.70
9935;BME280;5006;41.828;23.478;2023-02-17T02:38:11;91051.38;;;7.01;53.33
9935;BME280;5006;41.828;23.478;2023-02-17T02:39:20;91042.16;;;7.14;54.73
9935;BME280;5006;41.828;23.478;2023-02-17T02:40:31;91048.19;;;7.11;53.38
9935;BME280;5006;41.828;23.478;2023-02-17T02:41:39;91036.06;;;7.48;52.43
9935;BME280;5006;41.828;23.478;2023-02-17T02:42:45;91042.00;;;7.07;54.70
9935;BME280;5006;41.828;23.478;2023-02-17T02:43:50;91048.38;;;7.71;53.10
9935;BME280;5006;41.828;23.478;2023-02-17T02:44:56;91042.38;;;7.59;52.89
9935;BME280;5006;41.828;23.478;2023-02-17T02:46:01;91048.94;;;7.46;53.16
9935;BME280;5006;41.828;23.478;2023-02-17T02:47:39;91043.16;;;7.78;51.20
9935;BME280;5006;41.828;23.478;2023-02-17T02:48:46;91043.09;;;7.75;50.08
9935;BME280;5006;41.828;23.478;2023-02-17T02:49:53;91043.25;;;8.01;49.27
9935;BME280;5006;41.828;23.478;2023-02-17T02:51:15;91042.53;;;7.85;49.95
9935;BME280;5006;41.828;23.478;2023-02-17T02:52:28;91041.84;;;7.88;48.69
9935;BME280;5006;41.828;23.478;2023-02-17T02:54:14;91037.44;;;8.18;48.56
9935;BME280;5006;41.828;23.478;2023-02-17T02:55:32;91035.31;;;8.46;48.20
9935;BME280;5006;41.828;23.478;2023-02-17T02:56:49;91031.16;;;7.69;50.79
9935;BME280;5006;41.828;23.478;2023-02-17T02:58:02;91033.88;;;7.53;50.26
9935;BME280;5006;41.828;23.478;2023-02-17T02:59:22;91033.84;;;9.74;46.48
9935;BME280;5006;41.828;23.478;2023-02-17T03:00:34;91032.75;;;10.05;45.15
9935;BME280;5006;41.828;23.478;2023-02-17T03:01:46;91035.34;;;11.10;43.66
9935;BME280;5006;41.828;23.478;2023-02-17T03:02:58;91034.50;;;11.03;44.52
9935;BME280;5006;41.828;23.478;2023-02-17T03:04:11;91037.72;;;10.36;45.58
9935;BME280;5006;41.828;23.478;2023-02-17T03:05:25;91030.16;;;10.12;44.88
9935;BME280;5006;41.828;23.478;2023-02-17T03:06:36;91033.38;;;10.64;42.59
9935;BME280;5006;41.828;23.478;2023-02-17T03:07:50;91027.47;;;11.31;41.83
9935;BME280;5006;41.828;23.478;2023-02-17T03:09:01;91039.91;;;11.06;42.78
9935;BME280;5006;41.828;23.478;2023-02-17T03:10:09;91040.09;;;11.27;41.07
9935;BME280;5006;41.828;23.478;2023-02-17T03:11:15;91036.88;;;11.58;40.40
9935;BME280;5006;41.828;23.478;2023-02-17T03:12:36;91033.84;;;11.63;42.78
9935;BME280;5006;41.828;23.478;2023-02-17T03:13:42;91030.81;;;11.21;44.61
9935;BME280;5006;41.828;23.478;2023-02-17T03:14:53;91029.09;;;11.46;43.00
9935;BME280;5006;41.828;23.478;2023-02-17T03:16:00;91029.47;;;11.48;42.93
9935;BME280;5006;41.828;23.478;2023-02-17T03:17:05;91035.47;;;11.28;43.40
9935;BME280;5006;41.828;23.478;2023-02-17T03:18:11;91026.88;;;11.05;44.32
9935;BME280;5006;41.828;23.478;2023-02-17T03:19:21;91032.94;;;11.49;43.20
9935;BME280;5006;41.828;23.478;2023-02-17T03:20:32;91021.84;;;11.50;42.40
9935;BME280;5006;41.828;23.478;2023-02-17T03:21:41;91017.56;;;10.95;42.48
9935;BME280;5006;41.828;23.478;2023-02-17T03:22:48;91024.75;;;11.85;40.35
9935;BME280;5006;41.828;23.478;2023-02-17T03:23:53;91027.31;;;11.61;40.99
9935;BME280;5006;41.828;23.478;2023-02-17T03:24:58;91019.94;;;11.00;41.54
9935;BME280;5006;41.828;23.478;2023-02-17T03:26:04;91019.41;;;10.84;41.45
9935;BME280;5006;41.828;23.478;2023-02-17T03:27:10;91020.28;;;10.56;40.76
9935;BME280;5006;41.828;23.478;2023-02-17T03:28:14;91010.03;;;11.08;41.06
9935;BME280;5006;41.828;23.478;2023-02-17T03:29:20;91013.59;;;11.80;41.77
9935;BME280;5006;41.828;23.478;2023-02-17T03:30:25;91017.41;;;11.21;40.72
9935;BME280;5006;41.828;23.478;2023-02-17T03:31:31;91010.13;;;11.76;39.42
9935;BME280;5006;41.828;23.478;2023-02-17T03:32:36;91005.44;;;12.55;39.80
9935;BME280;5006;41.828;23.478;2023-02-17T03:33:42;91010.84;;;11.69;38.38
9935;BME280;5006;41.828;23.478;2023-02-17T03:34:48;91000.50;;;12.81;39.15
9935;BME280;5006;41.828;23.478;2023-02-17T03:35:53;91004.00;;;13.44;37.60
9935;BME280;5006;41.828;23.478;2023-02-17T03:36:58;91003.97;;;13.58;34.99
9935;BME280;5006;41.828;23.478;2023-02-17T03:38:04;91013.84;;;12.36;36.78
9935;BME280;5006;41.828;23.478;2023-02-17T03:39:08;91008.16;;;10.68;41.34
9935;BME280;5006;41.828;23.478;2023-02-17T03:40:14;91016.59;;;10.70;42.42
9935;BME280;5006;41.828;23.478;2023-02-17T03:41:19;91010.53;;;8.26;45.11
9935;BME280;5006;41.828;23.478;2023-02-17T03:42:24;91017.81;;;8.48;47.69
9935;BME280;5006;41.828;23.478;2023-02-17T03:43:29;91010.91;;;10.79;43.07
9935;BME280;5006;41.828;23.478;2023-02-17T03:44:35;91012.91;;;8.12;45.60
9935;BME280;5006;41.828;23.478;2023-02-17T03:45:39;91023.22;;;8.74;45.22
9935;BME280;5006;41.828;23.478;2023-02-17T03:46:45;91019.44;;;7.20;47.74
9935;BME280;5006;41.828;23.478;2023-02-17T03:47:50;91026.56;;;6.81;50.02
9935;BME280;5006;41.828;23.478;2023-02-17T03:48:55;91022.28;;;6.31;50.41
9935;BME280;5006;41.828;23.478;2023-02-17T03:50:01;91023.66;;;6.55;49.92
9935;BME280;5006;41.828;23.478;2023-02-17T03:51:11;91024.16;;;6.15;51.17
9935;BME280;5006;41.828;23.478;2023-02-17T03:52:17;91023.97;;;7.35;49.39
9935;BME280;5006;41.828;23.478;2023-02-17T03:53:22;91013.00;;;8.16;47.84
9935;BME280;5006;41.828;23.478;2023-02-17T03:54:27;91015.63;;;7.93;47.88
9935;BME280;5006;41.828;23.478;2023-02-17T03:55:33;91021.78;;;8.57;46.95
9935;BME280;5006;41.828;23.478;2023-02-17T03:56:37;91022.91;;;8.79;46.29
9935;BME280;5006;41.828;23.478;2023-02-17T03:57:43;91020.50;;;8.96;46.23
9935;BME280;5006;41.828;23.478;2023-02-17T03:58:48;91021.53;;;8.88;46.05
9935;BME280;5006;41.828;23.478;2023-02-17T03:59:54;91027.69;;;8.25;47.06
9935;BME280;5006;41.828;23.478;2023-02-17T04:00:59;91021.31;;;7.54;48.94
9935;BME280;5006;41.828;23.478;2023-02-17T04:02:04;91016.81;;;7.96;48.12
9935;BME280;5006;41.828;23.478;2023-02-17T04:03:09;91020.06;;;7.67;48.26
9935;BME280;5006;41.828;23.478;2023-02-17T04:04:14;91028.56;;;6.53;50.47
9935;BME280;5006;41.828;23.478;2023-02-17T04:05:20;91014.84;;;7.36;48.85
9935;BME280;5006;41.828;23.478;2023-02-17T04:06:25;91022.63;;;7.44;49.32
9935;BME280;5006;41.828;23.478;2023-02-17T04:07:30;91017.03;;;7.87;48.26
9935;BME280;5006;41.828;23.478;2023-02-17T04:08:36;91020.09;;;8.27;47.56
9935;BME280;5006;41.828;23.478;2023-02-17T04:09:41;91022.28;;;8.22;47.18
9935;BME280;5006;41.828;23.478;2023-02-17T04:10:50;91022.34;;;7.49;49.00
9935;BME280;5006;41.828;23.478;2023-02-17T04:11:55;91021.16;;;8.04;47.99
9935;BME280;5006;41.828;23.478;2023-02-17T04:13:01;91022.25;;;8.18;48.23
9935;BME280;5006;41.828;23.478;2023-02-17T04:14:05;91024.16;;;8.62;45.97
9935;BME280;5006;41.828;23.478;2023-02-17T04:15:11;91025.03;;;7.87;46.95
9935;BME280;5006;41.828;23.478;2023-02-17T04:16:15;91025.94;;;7.38;47.92
9935;BME280;5006;41.828;23.478;2023-02-17T04:17:21;91023.38;;;7.26;49.26
9935;BME280;5006;41.828;23.478;2023-02-17T04:18:26;91021.22;;;7.88;48.54
9935;BME280;5006;41.828;23.478;2023-02-17T04:19:32;91015.78;;;7.81;48.53
9935;BME280;5006;41.828;23.478;2023-02-17T04:20:38;91024.03;;;7.76;48.86
9935;BME280;5006;41.828;23.478;2023-02-17T04:21:44;91025.59;;;7.96;49.29
9935;BME280;5006;41.828;23.478;2023-02-17T04:22:48;91020.09;;;7.89;50.09
9935;BME280;5006;41.828;23.478;2023-02-17T04:23:54;91022.72;;;7.67;50.36
9935;BME280;5006;41.828;23.478;2023-02-17T04:24:59;91024.88;;;7.61;51.03
9935;BME280;5006;41.828;23.478;2023-02-17T04:26:06;91017.38;;;8.05;50.63
9935;BME280;5006;41.828;23.478;2023-02-17T04:27:12;91025.44;;;7.89;50.43
9935;BME280;5006;41.828;23.478;2023-02-17T04:28:18;91027.91;;;7.60;49.80
9935;BME280;5006;41.828;23.478;2023-02-17T04:29:22;91033.22;;;7.41;50.07
9935;BME280;5006;41.828;23.478;2023-02-17T04:30:29;91023.47;;;7.48;51.41
9935;BME280;5006;41.828;23.478;2023-02-17T04:31:33;91028.13;;;7.70;52.11
9935;BME280;5006;41.828;23.478;2023-02-17T04:32:39;91030.38;;;7.68;51.80
9935;BME280;5006;41.828;23.478;2023-02-17T04:33:44;91032.28;;;7.49;54.35
9935;BME280;5006;41.828;23.478;2023-02-17T04:34:50;91027.72;;;7.68;53.44
9935;BME280;5006;41.828;23.478;2023-02-17T04:35:56;91029.16;;;7.47;52.76
9935;BME280;5006;41.828;23.478;2023-02-17T04:37:03;91023.63;;;7.55;51.99
9935;BME280;5006;41.828;23.478;2023-02-17T04:38:09;91032.06;;;7.76;51.10
9935;BME280;5006;41.828;23.478;2023-02-17T04:39:14;91023.47;;;7.29;51.76
9935;BME280;5006;41.828;23.478;2023-02-17T04:40:19;91028.22;;;7.20;54.46
9935;BME280;5006;41.828;23.478;2023-02-17T04:41:25;91025.22;;;7.60;54.05
9935;BME280;5006;41.828;23.478;2023-02-17T04:42:30;91031.00;;;7.62;53.08
9935;BME280;5006;41.828;23.478;2023-02-17T04:43:36;91020.69;;;7.79;50.19
9935;BME280;5006;41.828;23.478;2023-02-17T04:44:41;91019.09;;;8.35;50.49
9935;BME280;5006;41.828;23.478;2023-02-17T04:45:45;91017.25;;;8.39;50.03
9935;BME280;5006;41.828;23.478;2023-02-17T04:46:51;91021.06;;;8.38;50.85
9935;BME280;5006;41.828;23.478;2023-02-17T04:47:56;91016.28;;;8.28;48.64
9935;BME280;5006;41.828;23.478;2023-02-17T04:49:01;91015.66;;;8.79;48.04
9935;BME280;5006;41.828;23.478;2023-02-17T04:50:08;91012.38;;;8.67;50.99
9935;BME280;5006;41.828;23.478;2023-02-17T04:51:15;91009.94;;;8.58;50.47
9935;BME280;5006;41.828;23.478;2023-02-17T04:52:20;91014.22;;;8.18;49.80
9935;BME280;5006;41.828;23.478;2023-02-17T04:53:25;91012.84;;;8.95;48.85
9935;BME280;5006;41.828;23.478;2023-02-17T04:54:30;91001.63;;;9.38;45.14
9935;BME280;5006;41.828;23.478;2023-02-17T04:55:35;90996.78;;;9.47;46.40
9935;BME280;5006;41.828;23.478;2023-02-17T04:56:41;90999.06;;;9.19;45.87
9935;BME280;5006;41.828;23.478;2023-02-17T04:57:45;90996.59;;;9.07;43.83
9935;BME280;5006;41.828;23.478;2023-02-17T04:58:51;91005.81;;;9.09;42.50
9935;BME280;5006;41.828;23.478;2023-02-17T04:59:55;91006.84;;;9.57;42.25
9935;BME280;5006;41.828;23.478;2023-02-17T05:01:00;91002.31;;;9.61;41.84
9935;BME280;5006;41.828;23.478;2023-02-17T05:02:06;90995.94;;;9.43;41.77
9935;BME280;5006;41.828;23.478;2023-02-17T05:03:10;91005.13;;;10.01;41.00
9935;BME280;5006;41.828;23.478;2023-02-17T05:04:16;91005.06;;;10.27;40.47
9935;BME280;5006;41.828;23.478;2023-02-17T05:05:21;90995.09;;;10.64;40.18
9935;BME280;5006;41.828;23.478;2023-02-17T05:06:27;90995.56;;;10.76;39.74
9935;BME280;5006;41.828;23.478;2023-02-17T05:07:33;90999.03;;;10.40;40.12
9935;BME280;5006;41.828;23.478;2023-02-17T05:08:38;91006.25;;;10.33;40.49
9935;BME280;5006;41.828;23.478;2023-02-17T05:09:44;91006.69;;;10.78;39.56
9935;BME280;5006;41.828;23.478;2023-02-17T05:10:49;91012.28;;;11.02;39.28
9935;BME280;5006;41.828;23.478;2023-02-17T05:11:55;91009.91;;;9.85;41.53
9935;BME280;5006;41.828;23.478;2023-02-17T05:13:01;91014.91;;;9.31;42.26
9935;BME280;5006;41.828;23.478;2023-02-17T05:14:06;91018.75;;;10.55;40.84
9935;BME280;5006;41.828;23.478;2023-02-17T05:15:11;91011.50;;;10.22;40.86
9935;BME280;5006;41.828;23.478;2023-02-17T05:16:17;91017.56;;;11.42;39.87
9935;BME280;5006;41.828;23.478;2023-02-17T05:17:21;91011.06;;;10.17;41.85
9935;BME280;5006;41.828;23.478;2023-02-17T05:18:27;91022.91;;;9.05;45.51
9935;BME280;5006;41.828;23.478;2023-02-17T05:19:32;91018.94;;;10.03;43.99
9935;BME280;5006;41.828;23.478;2023-02-17T05:20:38;91016.97;;;9.70;44.90
9935;BME280;5006;41.828;23.478;2023-02-17T05:21:44;91005.63;;;9.80;42.64
9935;BME280;5006;41.828;23.478;2023-02-17T05:22:49;91014.72;;;9.72;42.41
9935;BME280;5006;41.828;23.478;2023-02-17T05:23:55;91025.03;;;8.48;44.55
9935;BME280;5006;41.828;23.478;2023-02-17T05:24:59;91025.69;;;8.41;45.62
9935;BME280;5006;41.828;23.478;2023-02-17T05:26:04;91024.16;;;9.63;41.47
9935;BME280;5006;41.828;23.478;2023-02-17T05:27:10;91020.31;;;9.34;42.66
9935;BME280;5006;41.828;23.478;2023-02-17T05:28:14;91011.53;;;9.63;41.44
9935;BME280;5006;41.828;23.478;2023-02-17T05:29:20;91013.06;;;10.23;41.93
9935;BME280;5006;41.828;23.478;2023-02-17T05:30:26;91010.59;;;10.44;40.52
9935;BME280;5006;41.828;23.478;2023-02-17T05:31:32;91008.38;;;10.17;40.02
9935;BME280;5006;41.828;23.478;2023-02-17T05:32:37;91017.06;;;10.40;39.46
9935;BME280;5006;41.828;23.478;2023-02-17T05:33:47;91018.41;;;10.23;39.92
9935;BME280;5006;41.828;23.478;2023-02-17T05:34:53;91016.06;;;10.55;38.87
9935;BME280;5006;41.828;23.478;2023-02-17T05:36:00;91018.59;;;10.80;39.39
9935;BME280;5006;41.828;23.478;2023-02-17T05:37:07;91018.75;;;10.55;39.06
9935;BME280;5006;41.828;23.478;2023-02-17T05:38:12;91011.63;;;10.33;39.18
9935;BME280;5006;41.828;23.478;2023-02-17T05:39:17;91015.25;;;10.51;39.10
9935;BME280;5006;41.828;23.478;2023-02-17T05:40:22;91010.94;;;10.82;38.74
9935;BME280;5006;41.828;23.478;2023-02-17T05:41:28;91021.44;;;10.98;38.90
9935;BME280;5006;41.828;23.478;2023-02-17T05:42:32;91028.03;;;10.64;38.99
9935;BME280;5006;41.828;23.478;2023-02-17T05:43:37;91020.69;;;11.01;38.43
9935;BME280;5006;41.828;23.478;2023-02-17T05:44:42;91012.31;;;11.06;38.88
9935;BME280;5006;41.828;23.478;2023-02-17T05:45:48;91026.28;;;11.25;39.27
9935;BME280;5006;41.828;23.478;2023-02-17T05:46:53;91023.91;;;11.20;37.36
9935;BME280;5006;41.828;23.478;2023-02-17T05:47:59;91026.66;;;11.27;37.90
9935;BME280;5006;41.828;23.478;2023-02-17T05:49:05;91027.66;;;11.09;38.08
9935;BME280;5006;41.828;23.478;2023-02-17T05:50:11;91029.56;;;11.08;38.13
9935;BME280;5006;41.828;23.478;2023-02-17T05:51:16;91027.91;;;11.40;38.16
9935;BME280;5006;41.828;23.478;2023-02-17T05:52:22;91012.25;;;10.99;38.93
9935;BME280;5006;41.828;23.478;2023-02-17T05:53:27;91027.97;;;10.97;38.95
9935;BME280;5006;41.828;23.478;2023-02-17T05:54:33;91035.13;;;11.29;39.14
9935;BME280;5006;41.828;23.478;2023-02-17T05:55:38;91023.59;;;11.25;39.17
9935;BME280;5006;41.828;23.478;2023-02-17T05:56:44;91024.88;;;11.45;38.43
9935;BME280;5006;41.828;23.478;2023-02-17T05:57:49;91025.69;;;11.49;37.94
9935;BME280;5006;41.828;23.478;2023-02-17T05:58:55;91022.44;;;11.87;37.74
9935;BME280;5006;41.828;23.478;2023-02-17T05:59:59;91015.75;;;12.28;36.92
9935;BME280;5006;41.828;23.478;2023-02-17T06:01:07;91020.06;;;11.68;37.55
9935;BME280;5006;41.828;23.478;2023-02-17T06:02:11;91017.88;;;11.91;37.22
9935;BME280;5006;41.828;23.478;2023-02-17T06:03:19;91015.97;;;11.88;37.17
9935;BME280;5006;41.828;23.478;2023-02-17T06:04:27;91027.81;;;11.80;36.80
9935;BME280;5006;41.828;23.478;2023-02-17T06:05:33;91019.69;;;11.70;37.86
9935;BME280;5006;41.828;23.478;2023-02-17T06:06:37;91023.53;;;11.72;37.19
9935;BME280;5006;41.828;23.478;2023-02-17T06:07:43;91031.91;;;11.64;38.25
9935;BME280;5006;41.828;23.478;2023-02-17T06:08:47;91031.84;;;12.25;37.74